createdAt,value
2018-04-09T00:00:34.861Z,15.93
2018-04-09T00:03:02.410Z,15.70
2018-04-09T00:05:29.974Z,15.93
2018-04-09T00:07:57.503Z,16.10
2018-04-09T00:10:25.717Z,15.70
2018-04-09T00:12:53.245Z,16.23
2018-04-09T00:15:20.858Z,16.80
2018-04-09T00:17:48.381Z,16.53
2018-04-09T00:20:15.949Z,16.97
2018-04-09T00:22:43.489Z,17.10
2018-04-09T00:25:11.097Z,16.53
2018-04-09T00:27:38.625Z,16.57
2018-04-09T00:30:06.233Z,15.77
2018-04-09T00:32:33.758Z,15.20
2018-04-09T00:35:01.297Z,14.80
2018-04-09T00:37:28.845Z,14.80
2018-04-09T00:39:56.471Z,14.60
2018-04-09T00:42:24.031Z,15.80
2018-04-09T00:44:51.567Z,15.03
2018-04-09T00:47:19.099Z,16.07
2018-04-09T00:49:46.711Z,15.43
2018-04-09T00:52:14.266Z,16.43
2018-04-09T00:54:41.786Z,15.13
2018-04-09T00:57:09.313Z,15.63
2018-04-09T00:59:36.848Z,16.17
2018-04-09T01:02:04.386Z,15.83
2018-04-09T01:04:31.928Z,16.67
2018-04-09T01:06:59.457Z,15.73
2018-04-09T01:09:27.091Z,16.07
2018-04-09T01:11:54.659Z,15.53
2018-04-09T01:14:22.194Z,16.00
2018-04-09T01:16:49.722Z,15.63
2018-04-09T01:19:17.330Z,16.23
2018-04-09T01:21:44.889Z,17.00
2018-04-09T01:24:12.411Z,16.57
2018-04-09T01:26:40.011Z,16.43
2018-04-09T01:29:07.541Z,17.07
2018-04-09T01:31:35.129Z,17.33
2018-04-09T01:34:02.660Z,17.53
2018-04-09T01:36:30.209Z,17.00
2018-04-09T01:38:57.808Z,16.73
2018-04-09T01:41:25.369Z,17.43
2018-04-09T01:43:52.902Z,16.43
2018-04-09T01:46:20.424Z,17.17
2018-04-09T01:48:47.941Z,17.80
2018-04-09T01:51:15.476Z,18.53
2018-04-09T01:53:43.067Z,18.13
2018-04-09T01:56:10.732Z,17.27
2018-04-09T01:58:38.262Z,17.93
2018-04-09T02:01:05.788Z,17.73
2018-04-09T02:03:33.346Z,17.43
2018-04-09T02:06:00.865Z,17.77
2018-04-09T02:08:28.401Z,17.23
2018-04-09T02:10:55.926Z,16.90
2018-04-09T02:13:23.444Z,17.77
2018-04-09T02:15:50.978Z,18.90
2018-04-09T02:18:18.506Z,17.37
2018-04-09T02:20:46.039Z,17.80
2018-04-09T02:23:13.583Z,17.13
2018-04-09T02:25:41.134Z,17.67
2018-04-09T02:28:08.668Z,17.33
2018-04-09T02:30:36.188Z,17.97
2018-04-09T02:33:03.823Z,17.83
2018-04-09T02:35:31.350Z,18.83
2018-04-09T02:37:58.870Z,17.57
2018-04-09T02:40:26.400Z,17.20
2018-04-09T02:42:53.925Z,16.73
2018-04-09T02:45:21.439Z,17.47
2018-04-09T02:47:48.978Z,18.83
2018-04-09T02:50:16.488Z,17.60
2018-04-09T02:52:44.018Z,17.53
2018-04-09T02:55:11.550Z,17.37
2018-04-09T02:57:39.083Z,17.87
2018-04-09T03:00:06.617Z,18.27
2018-04-09T03:02:34.146Z,18.43
2018-04-09T03:05:01.677Z,18.33
2018-04-09T03:07:29.206Z,18.43
2018-04-09T03:09:56.749Z,17.83
2018-04-09T03:12:24.280Z,17.43
2018-04-09T03:14:51.927Z,17.97
2018-04-09T03:17:19.492Z,18.90
2018-04-09T03:19:47.052Z,18.40
2018-04-09T03:22:14.577Z,19.10
2018-04-09T03:24:42.167Z,18.47
2018-04-09T03:27:09.718Z,18.00
2018-04-09T03:29:37.293Z,18.83
2018-04-09T03:32:04.819Z,18.43
2018-04-09T03:34:32.350Z,17.73
2018-04-09T03:36:59.871Z,19.17
2018-04-09T03:39:27.392Z,19.57
2018-04-09T03:41:54.921Z,17.83
2018-04-09T03:44:22.482Z,18.80
2018-04-09T03:46:50.114Z,18.33
2018-04-09T03:49:17.639Z,18.33
2018-04-09T03:51:45.165Z,19.30
2018-04-09T03:54:12.683Z,19.30
2018-04-09T03:56:40.214Z,18.13
2018-04-09T03:59:07.752Z,18.60
2018-04-09T04:01:35.285Z,19.03
2018-04-09T04:04:02.823Z,19.20
2018-04-09T04:06:30.353Z,19.53
2018-04-09T04:08:57.865Z,18.60
2018-04-09T04:11:25.402Z,19.30
2018-04-09T04:13:52.930Z,18.23
2018-04-09T04:16:32.204Z,19.03
2018-04-09T04:19:11.732Z,18.90
2018-04-09T04:21:45.218Z,19.47
2018-04-09T04:24:12.786Z,18.63
2018-04-09T04:26:40.312Z,19.20
2018-04-09T04:29:07.842Z,18.73
2018-04-09T04:31:35.375Z,17.70
2018-04-09T04:34:02.893Z,18.53
2018-04-09T04:36:30.430Z,19.83
2018-04-09T04:38:57.998Z,19.40
2018-04-09T04:41:25.516Z,18.53
2018-04-09T04:43:53.067Z,20.00
2018-04-09T04:46:20.615Z,18.67
2018-04-09T04:48:48.129Z,19.20
2018-04-09T04:51:15.649Z,18.20
2018-04-09T04:53:43.208Z,18.83
2018-04-09T04:56:10.753Z,19.37
2018-04-09T04:58:38.372Z,18.00
2018-04-09T05:01:05.888Z,20.47
2018-04-09T05:03:33.443Z,20.57
2018-04-09T05:06:00.962Z,20.63
2018-04-09T05:08:28.493Z,21.30
2018-04-09T05:10:56.025Z,20.43
2018-04-09T05:13:23.558Z,19.80
2018-04-09T05:15:51.142Z,20.33
2018-04-09T05:18:18.693Z,21.43
2018-04-09T05:20:46.230Z,20.63
2018-04-09T05:23:13.768Z,21.10
2018-04-09T05:25:41.386Z,21.13
2018-04-09T05:28:08.909Z,20.07
2018-04-09T05:30:36.502Z,21.40
2018-04-09T05:33:04.035Z,21.97
2018-04-09T05:35:31.625Z,22.13
2018-04-09T05:37:59.156Z,21.30
2018-04-09T05:40:26.745Z,20.80
2018-04-09T05:42:54.289Z,21.97
2018-04-09T05:45:22.073Z,20.63
2018-04-09T05:47:49.596Z,19.80
2018-04-09T05:50:17.114Z,21.00
2018-04-09T05:52:44.747Z,24.03
2018-04-09T05:55:12.276Z,20.20
2018-04-09T05:57:39.833Z,42.77
2018-04-09T06:00:07.402Z,29.97
2018-04-09T06:02:34.925Z,22.53
2018-04-09T06:05:02.471Z,33.33
2018-04-09T06:07:29.992Z,28.10
2018-04-09T06:09:57.520Z,36.27
2018-04-09T06:12:25.123Z,31.17
2018-04-09T06:14:52.674Z,27.43
2018-04-09T06:17:20.213Z,25.10
2018-04-09T06:19:47.807Z,23.63
2018-04-09T06:22:15.338Z,24.93
2018-04-09T06:24:42.923Z,19.57
2018-04-09T06:27:10.468Z,25.33
2018-04-09T06:29:38.012Z,28.47
2018-04-09T06:32:05.547Z,21.67
2018-04-09T06:34:33.090Z,19.37
2018-04-09T06:37:00.625Z,19.63
2018-04-09T06:39:28.156Z,18.13
2018-04-09T06:41:55.703Z,18.30
2018-04-09T06:44:23.233Z,18.63
2018-04-09T06:46:50.762Z,18.93
2018-04-09T06:49:18.277Z,18.20
2018-04-09T06:51:45.815Z,22.87
2018-04-09T06:54:13.346Z,19.17
2018-04-09T06:56:40.895Z,21.00
2018-04-09T06:59:08.426Z,17.33
2018-04-09T07:01:35.965Z,17.37
2018-04-09T07:04:03.521Z,16.80
2018-04-09T07:06:31.056Z,18.13
2018-04-09T07:08:58.653Z,18.67
2018-04-09T07:11:26.224Z,17.00
2018-04-09T07:13:53.788Z,20.80
2018-04-09T07:16:21.365Z,18.57
2018-04-09T07:18:48.874Z,17.33
2018-04-09T07:21:16.498Z,17.73
2018-04-09T07:23:44.029Z,17.63
2018-04-09T07:26:11.553Z,18.13
2018-04-09T07:28:39.123Z,16.47
2018-04-09T07:31:06.656Z,16.13
2018-04-09T07:33:34.301Z,18.47
2018-04-09T07:36:01.826Z,19.13
2018-04-09T07:38:29.430Z,15.27
2018-04-09T07:40:56.961Z,16.17
2018-04-09T07:43:24.497Z,15.80
2018-04-09T07:45:52.068Z,14.67
2018-04-09T07:48:19.602Z,15.23
2018-04-09T07:50:47.162Z,13.60
2018-04-09T07:53:14.740Z,12.83
2018-04-09T07:55:42.291Z,13.00
2018-04-09T07:58:09.859Z,12.93
2018-04-09T08:00:37.458Z,11.83
2018-04-09T08:03:04.987Z,12.80
2018-04-09T08:05:32.519Z,12.03
2018-04-09T08:08:00.125Z,11.37
2018-04-09T08:10:27.665Z,11.50
2018-04-09T08:12:55.247Z,10.50
2018-04-09T08:15:22.788Z,10.73
2018-04-09T08:17:50.322Z,10.90
2018-04-09T08:20:17.865Z,11.33
2018-04-09T08:22:45.517Z,11.73
2018-04-09T08:25:13.105Z,14.93
2018-04-09T08:27:40.640Z,13.23
2018-04-09T08:30:08.178Z,14.40
2018-04-09T08:32:35.706Z,14.98
2018-04-09T08:35:03.236Z,14.52
2018-04-09T08:37:30.832Z,14.27
2018-04-09T08:39:58.355Z,15.73
2018-04-09T08:42:25.910Z,17.20
2018-04-09T08:44:53.538Z,15.30
2018-04-09T08:47:21.069Z,12.93
2018-04-09T08:49:48.614Z,12.60
2018-04-09T08:52:16.137Z,11.38
2018-04-09T08:54:43.675Z,10.98
2018-04-09T08:57:11.201Z,9.70
2018-04-09T08:59:38.799Z,10.35
2018-04-09T09:02:06.322Z,9.40
2018-04-09T09:04:33.851Z,9.20
2018-04-09T09:07:01.376Z,8.57
2018-04-09T09:09:28.931Z,8.80
2018-04-09T09:11:56.493Z,8.57
2018-04-09T09:14:24.011Z,8.20
2018-04-09T09:16:51.534Z,8.75
2018-04-09T09:19:19.182Z,8.43
2018-04-09T09:21:46.702Z,7.72
2018-04-09T09:24:14.249Z,8.27
2018-04-09T09:26:41.806Z,7.93
2018-04-09T09:29:10.246Z,7.47
2018-04-09T09:31:37.760Z,8.40
2018-04-09T09:34:05.325Z,8.38
2018-04-09T09:36:32.916Z,14.70
2018-04-09T09:39:00.425Z,9.27
2018-04-09T09:41:27.952Z,8.52
2018-04-09T09:43:55.602Z,8.40
2018-04-09T09:46:23.136Z,8.75
2018-04-09T09:48:50.670Z,8.32
2018-04-09T09:51:18.271Z,8.95
2018-04-09T09:53:45.801Z,8.32
2018-04-09T09:56:13.403Z,8.43
2018-04-09T09:58:40.932Z,8.20
2018-04-09T10:01:10.227Z,8.52
2018-04-09T10:03:37.813Z,8.30
2018-04-09T10:06:05.340Z,7.90
2018-04-09T10:08:32.864Z,8.05
2018-04-09T10:11:00.394Z,8.10
2018-04-09T10:13:27.957Z,8.00
2018-04-09T10:15:55.513Z,8.55
2018-04-09T10:18:23.046Z,8.05
2018-04-09T10:20:50.580Z,8.02
2018-04-09T10:23:18.146Z,8.55
2018-04-09T10:25:45.782Z,8.00
2018-04-09T10:28:13.414Z,8.02
2018-04-09T10:30:40.942Z,8.27
2018-04-09T10:33:08.591Z,8.57
2018-04-09T10:35:36.093Z,8.23
2018-04-09T10:38:03.617Z,8.65
2018-04-09T10:40:31.581Z,8.00
2018-04-09T10:42:59.181Z,8.63
2018-04-09T10:45:26.710Z,9.65
2018-04-09T10:47:54.229Z,9.65
2018-04-09T10:50:21.844Z,9.95
2018-04-09T10:52:49.372Z,9.35
2018-04-09T10:55:16.969Z,8.90
2018-04-09T10:57:44.496Z,9.63
2018-04-09T11:00:12.206Z,9.88
2018-04-09T11:02:39.772Z,10.45
2018-04-09T11:05:07.290Z,11.73
2018-04-09T11:07:34.842Z,11.23
2018-04-09T11:10:02.380Z,11.48
2018-04-09T11:12:30.005Z,11.07
2018-04-09T11:14:57.536Z,11.60
2018-04-09T11:17:25.095Z,10.87
2018-04-09T11:19:52.630Z,11.47
2018-04-09T11:22:20.171Z,12.13
2018-04-09T11:24:47.788Z,12.50
2018-04-09T11:27:15.319Z,13.47
2018-04-09T11:29:42.889Z,12.57
2018-04-09T11:32:10.411Z,13.57
2018-04-09T11:34:38.045Z,12.80
2018-04-09T11:37:05.597Z,12.27
2018-04-09T11:39:33.142Z,11.50
2018-04-09T11:42:00.695Z,12.30
2018-04-09T11:44:28.285Z,12.10
2018-04-09T11:46:55.803Z,12.37
2018-04-09T11:49:23.375Z,11.20
2018-04-09T11:51:50.952Z,11.67
2018-04-09T11:54:18.483Z,11.37
2018-04-09T11:56:46.090Z,12.77
2018-04-09T11:59:13.602Z,11.80
2018-04-09T12:01:41.208Z,12.20
2018-04-09T12:04:08.726Z,11.43
2018-04-09T12:06:36.283Z,12.27
2018-04-09T12:09:03.820Z,11.67
2018-04-09T12:11:31.455Z,12.60
2018-04-09T12:13:58.977Z,12.07
2018-04-09T12:16:26.511Z,12.13
2018-04-09T12:18:54.061Z,12.07
2018-04-09T12:21:21.692Z,11.23
2018-04-09T12:23:49.203Z,11.07
2018-04-09T12:26:16.803Z,11.73
2018-04-09T12:28:44.414Z,12.20
2018-04-09T12:31:12.035Z,11.43
2018-04-09T12:33:39.554Z,11.57
2018-04-09T12:36:07.154Z,11.57
2018-04-09T12:38:34.715Z,11.33
2018-04-09T12:41:02.250Z,10.30
2018-04-09T12:43:29.776Z,11.30
2018-04-09T12:45:57.315Z,10.50
2018-04-09T12:48:24.956Z,10.87
2018-04-09T12:50:52.499Z,11.70
2018-04-09T12:53:20.069Z,10.90
2018-04-09T12:55:47.607Z,10.27
2018-04-09T12:58:15.142Z,10.83
2018-04-09T13:00:42.710Z,11.03
2018-04-09T13:03:10.264Z,10.67
2018-04-09T13:05:37.854Z,11.17
2018-04-09T13:08:05.429Z,9.60
2018-04-09T13:10:32.958Z,10.40
2018-04-09T13:13:00.472Z,10.40
2018-04-09T13:15:28.093Z,10.07
2018-04-09T13:17:55.629Z,10.97
2018-04-09T13:20:23.158Z,10.43
2018-04-09T13:22:50.690Z,10.30
2018-04-09T13:25:18.234Z,10.53
2018-04-09T13:27:45.763Z,10.00
2018-04-09T13:30:13.370Z,10.03
2018-04-09T13:32:40.927Z,10.80
2018-04-09T13:35:08.455Z,9.40
2018-04-09T13:37:36.031Z,10.47
2018-04-09T13:40:03.548Z,10.07
2018-04-09T13:42:31.067Z,9.93
2018-04-09T13:44:58.595Z,9.63
2018-04-09T13:47:26.114Z,10.43
2018-04-09T13:49:53.629Z,9.80
2018-04-09T13:52:21.164Z,9.90
2018-04-09T13:54:48.695Z,10.50
2018-04-09T13:57:16.206Z,9.97
2018-04-09T13:59:43.732Z,10.30
2018-04-09T14:02:11.276Z,10.27
2018-04-09T14:04:38.850Z,8.97
2018-04-09T14:07:06.454Z,9.43
2018-04-09T14:09:33.986Z,9.33
2018-04-09T14:12:01.510Z,9.30
2018-04-09T14:14:29.129Z,9.03
2018-04-09T14:16:56.696Z,9.73
2018-04-09T14:19:24.263Z,9.07
2018-04-09T14:21:51.787Z,9.37
2018-04-09T14:24:19.367Z,8.47
2018-04-09T14:26:46.910Z,8.77
2018-04-09T14:29:14.516Z,9.30
2018-04-09T14:31:42.045Z,8.50
2018-04-09T14:34:09.608Z,8.50
2018-04-09T14:36:37.116Z,9.43
2018-04-09T14:39:04.637Z,9.43
2018-04-09T14:41:32.206Z,8.87
2018-04-09T14:43:59.744Z,8.33
2018-04-09T14:46:27.369Z,9.33
2018-04-09T14:48:54.992Z,8.93
2018-04-09T14:51:22.507Z,9.10
2018-04-09T14:53:50.027Z,8.60
2018-04-09T14:56:17.566Z,8.93
2018-04-09T14:58:45.101Z,8.33
2018-04-09T15:01:12.685Z,8.60
2018-04-09T15:03:40.553Z,9.07
2018-04-09T15:06:08.096Z,8.70
2018-04-09T15:08:35.641Z,8.30
2018-04-09T15:11:03.159Z,9.00
2018-04-09T15:13:30.689Z,8.80
2018-04-09T15:15:58.220Z,9.00
2018-04-09T15:18:25.808Z,9.60
2018-04-09T15:20:53.439Z,8.60
2018-04-09T15:23:21.031Z,9.10
2018-04-09T15:25:48.546Z,9.13
2018-04-09T15:28:16.113Z,9.03
2018-04-09T15:30:43.636Z,9.23
2018-04-09T15:33:11.168Z,9.27
2018-04-09T15:35:38.732Z,9.00
2018-04-09T15:38:06.291Z,9.23
2018-04-09T15:40:33.809Z,9.23
2018-04-09T15:43:01.330Z,9.50
2018-04-09T15:45:28.850Z,9.00
2018-04-09T15:47:56.423Z,9.63
2018-04-09T15:50:23.954Z,8.87
2018-04-09T15:52:51.546Z,10.17
2018-04-09T15:55:19.171Z,9.97
2018-04-09T15:57:46.768Z,9.97
2018-04-09T16:00:14.355Z,10.00
2018-04-09T16:02:41.995Z,9.20
2018-04-09T16:05:09.520Z,9.63
2018-04-09T16:07:39.980Z,9.80
2018-04-09T16:10:07.506Z,9.13
2018-04-09T16:12:35.202Z,8.93
2018-04-09T16:15:02.724Z,8.63
2018-04-09T16:17:30.319Z,8.67
2018-04-09T16:19:57.884Z,8.77
2018-04-09T16:22:25.527Z,9.00
2018-04-09T16:24:53.081Z,8.13
2018-04-09T16:27:20.595Z,7.80
2018-04-09T16:29:48.124Z,7.93
2018-04-09T16:32:15.684Z,7.40
2018-04-09T16:34:43.211Z,7.40
2018-04-09T16:37:10.855Z,7.73
2018-04-09T16:39:38.491Z,7.37
2018-04-09T16:42:06.037Z,6.90
2018-04-09T16:44:34.103Z,7.20
2018-04-09T16:47:01.625Z,7.00
2018-04-09T16:49:29.167Z,7.27
2018-04-09T16:51:56.699Z,7.57
2018-04-09T16:54:24.230Z,6.77
2018-04-09T16:56:51.746Z,7.20
2018-04-09T16:59:19.362Z,7.20
2018-04-09T17:01:46.879Z,6.87
2018-04-09T17:04:14.454Z,6.17
2018-04-09T17:06:42.001Z,7.63
2018-04-09T17:09:09.681Z,6.87
2018-04-09T17:11:37.202Z,8.07
2018-04-09T17:14:04.727Z,7.20
2018-04-09T17:16:32.238Z,6.37
2018-04-09T17:18:59.833Z,7.20
2018-04-09T17:21:27.454Z,6.93
2018-04-09T17:23:55.182Z,7.47
2018-04-09T17:26:22.824Z,7.07
2018-04-09T17:28:50.389Z,6.87
2018-04-09T17:31:17.906Z,6.90
2018-04-09T17:33:45.422Z,7.17
2018-04-09T17:36:12.942Z,7.47
2018-04-09T17:38:40.635Z,7.40
2018-04-09T17:41:08.285Z,7.67
2018-04-09T17:43:35.871Z,7.50
2018-04-09T17:46:03.427Z,7.73
2018-04-09T17:48:31.010Z,7.63
2018-04-09T17:50:58.730Z,8.10
2018-04-09T17:53:26.275Z,8.07
2018-04-09T17:55:53.866Z,8.10
2018-04-09T17:58:21.499Z,8.40
2018-04-09T18:00:49.183Z,9.00
2018-04-09T18:03:16.730Z,8.07
2018-04-09T18:05:44.398Z,8.30
2018-04-09T18:08:11.962Z,8.67
2018-04-09T18:10:39.624Z,7.90
2018-04-09T18:13:07.152Z,8.20
2018-04-09T18:15:34.788Z,8.97
2018-04-09T18:18:02.359Z,9.93
2018-04-09T18:20:30.067Z,8.33
2018-04-09T18:22:57.608Z,8.10
2018-04-09T18:25:25.138Z,8.30
2018-04-09T18:27:52.667Z,8.20
2018-04-09T18:30:20.302Z,7.50
2018-04-09T18:32:47.871Z,8.13
2018-04-09T18:35:15.384Z,7.93
2018-04-09T18:37:42.911Z,8.57
2018-04-09T18:40:10.462Z,8.50
2018-04-09T18:42:38.107Z,7.67
2018-04-09T18:45:05.678Z,8.90
2018-04-09T18:47:33.192Z,8.17
2018-04-09T18:50:00.793Z,8.73
2018-04-09T18:52:28.306Z,9.20
2018-04-09T18:54:55.835Z,9.70
2018-04-09T18:57:23.366Z,9.70
2018-04-09T18:59:50.927Z,10.17
2018-04-09T19:02:18.442Z,10.50
2018-04-09T19:04:46.047Z,9.77
2018-04-09T19:07:13.570Z,10.17
2018-04-09T19:09:41.137Z,10.97
2018-04-09T19:12:08.675Z,10.60
2018-04-09T19:14:36.282Z,9.80
2018-04-09T19:17:03.815Z,10.20
2018-04-09T19:19:31.381Z,10.37
2018-04-09T19:21:58.886Z,14.93
2018-04-09T19:24:26.411Z,11.17
2018-04-09T19:26:53.922Z,10.60
2018-04-09T19:29:21.485Z,10.70
2018-04-09T19:31:49.008Z,10.37
2018-04-09T19:34:16.565Z,10.80
2018-04-09T19:36:49.651Z,10.80
2018-04-09T19:39:22.743Z,10.60
2018-04-09T19:41:50.271Z,10.83
2018-04-09T19:44:17.863Z,10.97
2018-04-09T19:46:45.381Z,11.03
2018-04-09T19:49:12.945Z,10.80
2018-04-09T19:51:40.462Z,11.67
2018-04-09T19:54:07.985Z,11.60
2018-04-09T19:56:35.564Z,10.90
2018-04-09T19:59:03.078Z,12.30
2018-04-09T20:01:30.675Z,12.73
2018-04-09T20:03:58.206Z,11.27
2018-04-09T20:06:25.786Z,11.67
2018-04-09T20:08:53.327Z,12.00
2018-04-09T20:11:20.906Z,12.03
2018-04-09T20:13:48.467Z,11.23
2018-04-09T20:16:15.991Z,11.27
2018-04-09T20:18:43.603Z,11.87
2018-04-09T20:21:11.147Z,12.10
2018-04-09T20:23:38.811Z,11.10
2018-04-09T20:26:06.376Z,11.40
2018-04-09T20:28:33.930Z,12.00
2018-04-09T20:31:01.448Z,11.10
2018-04-09T20:33:28.974Z,11.67
2018-04-09T20:35:56.494Z,11.93
2018-04-09T20:38:24.077Z,12.10
2018-04-09T20:40:51.745Z,12.13
2018-04-09T20:43:19.290Z,11.50
2018-04-09T20:45:46.851Z,12.53
2018-04-09T20:48:14.385Z,12.13
2018-04-09T20:50:41.971Z,11.13
2018-04-09T20:53:09.542Z,11.33
2018-04-09T20:55:37.067Z,12.20
2018-04-09T20:58:04.733Z,10.53
2018-04-09T21:00:32.250Z,10.87
2018-04-09T21:02:59.770Z,10.00
2018-04-09T21:05:27.310Z,10.60
2018-04-09T21:07:54.832Z,10.53
2018-04-09T21:10:22.455Z,10.23
2018-04-09T21:12:49.983Z,10.07
2018-04-09T21:15:17.511Z,10.93
2018-04-09T21:17:45.132Z,10.93
2018-04-09T21:20:12.708Z,11.00
2018-04-09T21:22:40.223Z,11.67
2018-04-09T21:25:07.809Z,12.20
2018-04-09T21:27:35.370Z,12.03
2018-04-09T21:30:02.958Z,12.63
2018-04-09T21:32:30.604Z,11.93
2018-04-09T21:34:58.123Z,12.67
2018-04-09T21:37:25.650Z,12.73
2018-04-09T21:39:53.290Z,13.63
2018-04-09T21:42:20.834Z,13.33
2018-04-09T21:44:48.512Z,13.73
2018-04-09T21:47:16.174Z,13.20
2018-04-09T21:49:43.725Z,14.20
2018-04-09T21:52:11.295Z,13.60
2018-04-09T21:54:38.841Z,13.53
2018-04-09T21:57:06.366Z,14.10
2018-04-09T21:59:33.974Z,14.03
2018-04-09T22:02:01.509Z,14.93
2018-04-09T22:04:29.042Z,14.83
2018-04-09T22:06:56.607Z,14.73
2018-04-09T22:09:24.202Z,15.67
2018-04-09T22:11:51.758Z,14.83
2018-04-09T22:14:19.318Z,15.57
2018-04-09T22:16:46.878Z,15.53
2018-04-09T22:19:14.394Z,16.17
2018-04-09T22:21:41.908Z,16.10
2018-04-09T22:24:09.459Z,16.63
2018-04-09T22:26:37.003Z,17.07
2018-04-09T22:29:04.519Z,17.40
2018-04-09T22:31:32.138Z,17.37
2018-04-09T22:33:59.699Z,17.47
2018-04-09T22:36:27.361Z,16.53
2018-04-09T22:38:54.886Z,17.70
2018-04-09T22:41:22.415Z,17.83
2018-04-09T22:43:49.926Z,16.73
2018-04-09T22:46:17.482Z,17.93
2018-04-09T22:48:45.068Z,18.20
2018-04-09T22:51:12.586Z,18.33
2018-04-09T22:53:40.179Z,18.30
2018-04-09T22:56:07.748Z,18.90
2018-04-09T22:58:35.266Z,19.20
2018-04-09T23:01:02.795Z,19.33
2018-04-09T23:03:30.431Z,19.50
2018-04-09T23:05:57.947Z,19.73
2018-04-09T23:08:25.507Z,20.80
2018-04-09T23:10:53.098Z,20.30
2018-04-09T23:13:20.616Z,20.60
2018-04-09T23:15:48.223Z,21.13
2018-04-09T23:18:15.735Z,21.27
2018-04-09T23:20:43.252Z,20.90
2018-04-09T23:23:10.766Z,20.00
2018-04-09T23:25:38.373Z,20.80
2018-04-09T23:28:05.886Z,20.20
2018-04-09T23:30:33.451Z,20.10
2018-04-09T23:33:01.001Z,20.70
2018-04-09T23:35:28.534Z,21.63
2018-04-09T23:37:56.042Z,20.87
2018-04-09T23:40:23.614Z,20.20
2018-04-09T23:42:51.158Z,21.17
2018-04-09T23:45:18.734Z,20.13
2018-04-09T23:47:46.249Z,20.53
2018-04-09T23:50:13.867Z,20.77
2018-04-09T23:52:41.417Z,20.83
2018-04-09T23:55:08.947Z,20.20
2018-04-09T23:57:36.514Z,21.13
